createdAt,value
2019-06-26T00:00:02.352Z,25.67
2019-06-26T00:01:02.372Z,25.66
2019-06-26T00:02:02.329Z,25.68
2019-06-26T00:03:02.307Z,25.67
2019-06-26T00:04:02.285Z,25.70
2019-06-26T00:05:02.314Z,25.64
2019-06-26T00:06:02.528Z,25.66
2019-06-26T00:07:02.310Z,25.66
2019-06-26T00:08:02.252Z,25.70
2019-06-26T00:09:02.269Z,25.66
2019-06-26T00:10:02.220Z,25.68
2019-06-26T00:11:02.206Z,25.66
2019-06-26T00:12:02.246Z,25.66
2019-06-26T00:13:02.190Z,25.55
2019-06-26T00:14:02.158Z,25.52
2019-06-26T00:15:02.131Z,25.53
2019-06-26T00:16:02.145Z,25.53
2019-06-26T00:17:02.114Z,25.59
2019-06-26T00:18:02.102Z,25.58
2019-06-26T00:19:02.156Z,25.52
2019-06-26T00:20:02.078Z,25.52
2019-06-26T00:21:02.069Z,25.52
2019-06-26T00:22:02.049Z,25.49
2019-06-26T00:23:02.092Z,25.51
2019-06-26T00:24:02.023Z,25.48
2019-06-26T00:25:02.020Z,25.45
2019-06-26T00:26:02.003Z,25.36
2019-06-26T00:27:01.999Z,25.40
2019-06-26T00:28:01.969Z,25.38
2019-06-26T00:29:01.989Z,25.31
2019-06-26T00:30:01.967Z,25.36
2019-06-26T00:31:01.941Z,25.31
2019-06-26T00:32:01.941Z,25.34
2019-06-26T00:33:01.912Z,25.28
2019-06-26T00:34:01.902Z,25.26
2019-06-26T00:35:01.897Z,25.21
2019-06-26T00:36:01.882Z,25.22
2019-06-26T00:37:01.868Z,25.26
2019-06-26T00:38:01.845Z,25.22
2019-06-26T00:39:01.843Z,25.16
2019-06-26T00:40:01.825Z,25.21
2019-06-26T00:41:01.821Z,25.15
2019-06-26T00:42:01.803Z,25.22
2019-06-26T00:43:01.784Z,25.15
2019-06-26T00:44:01.769Z,25.15
2019-06-26T00:45:01.784Z,25.01
2019-06-26T00:46:01.749Z,25.03
2019-06-26T00:47:01.748Z,24.97
2019-06-26T00:48:01.722Z,25.03
2019-06-26T00:49:01.771Z,24.96
2019-06-26T00:50:01.704Z,24.91
2019-06-26T00:51:01.689Z,24.89
2019-06-26T00:52:01.675Z,24.97
2019-06-26T00:53:01.665Z,24.85
2019-06-26T00:54:01.650Z,24.82
2019-06-26T00:55:01.640Z,24.89
2019-06-26T00:56:01.622Z,24.79
2019-06-26T00:57:01.616Z,24.84
2019-06-26T00:58:01.599Z,24.85
2019-06-26T00:59:01.586Z,24.85
2019-06-26T01:00:01.596Z,24.78
2019-06-26T01:01:01.559Z,24.84
2019-06-26T01:02:01.545Z,24.75
2019-06-26T01:03:01.536Z,24.81
2019-06-26T01:04:01.523Z,24.78
2019-06-26T01:05:01.514Z,24.75
2019-06-26T01:06:01.496Z,24.75
2019-06-26T01:07:01.507Z,24.70
2019-06-26T01:08:01.482Z,24.74
2019-06-26T01:09:01.459Z,24.68
2019-06-26T01:10:01.442Z,24.63
2019-06-26T01:11:01.430Z,24.70
2019-06-26T01:12:01.435Z,24.60
2019-06-26T01:13:01.422Z,24.62
2019-06-26T01:14:01.415Z,24.70
2019-06-26T01:15:01.444Z,24.59
2019-06-26T01:16:01.393Z,24.65
2019-06-26T01:17:01.353Z,24.60
2019-06-26T01:18:01.337Z,24.56
2019-06-26T01:19:01.349Z,24.58
2019-06-26T01:20:01.341Z,24.52
2019-06-26T01:21:01.304Z,24.55
2019-06-26T01:22:01.297Z,24.48
2019-06-26T01:23:01.295Z,24.48
2019-06-26T01:24:01.265Z,24.53
2019-06-26T01:25:01.295Z,24.47
2019-06-26T01:26:01.239Z,24.44
2019-06-26T01:27:01.227Z,24.44
2019-06-26T01:28:01.213Z,24.43
2019-06-26T01:29:01.201Z,24.36
2019-06-26T01:30:01.306Z,24.37
2019-06-26T01:31:35.674Z,24.36
2019-06-26T01:32:01.160Z,24.33
2019-06-26T01:33:01.148Z,24.37
2019-06-26T01:34:01.133Z,24.28
2019-06-26T01:35:01.175Z,24.29
2019-06-26T01:36:01.110Z,24.31
2019-06-26T01:37:01.101Z,24.21
2019-06-26T01:38:01.080Z,24.18
2019-06-26T01:39:01.064Z,24.21
2019-06-26T01:40:01.053Z,24.16
2019-06-26T01:41:01.040Z,24.19
2019-06-26T01:42:01.100Z,24.22
2019-06-26T01:43:01.016Z,24.19
2019-06-26T01:44:13.663Z,24.16
2019-06-26T01:45:00.989Z,24.16
2019-06-26T01:46:00.975Z,24.19
2019-06-26T01:47:00.963Z,24.16
2019-06-26T01:48:00.951Z,24.08
2019-06-26T01:49:00.938Z,24.03
2019-06-26T01:50:00.923Z,24.07
2019-06-26T01:51:00.911Z,24.06
2019-06-26T01:52:00.896Z,24.10
2019-06-26T01:53:00.885Z,24.04
2019-06-26T01:54:00.870Z,24.01
2019-06-26T01:55:00.855Z,23.97
2019-06-26T01:56:00.844Z,24.01
2019-06-26T01:57:00.831Z,24.03
2019-06-26T01:58:00.813Z,24.00
2019-06-26T01:59:00.805Z,23.89
2019-06-26T02:00:00.792Z,24.00
2019-06-26T02:01:00.781Z,23.82
2019-06-26T02:02:00.764Z,23.88
2019-06-26T02:03:00.752Z,23.88
2019-06-26T02:04:00.739Z,23.88
2019-06-26T02:05:00.724Z,23.86
2019-06-26T02:06:00.712Z,23.79
2019-06-26T02:07:00.697Z,23.79
2019-06-26T02:08:00.723Z,23.81
2019-06-26T02:09:00.670Z,23.71
2019-06-26T02:10:00.656Z,23.70
2019-06-26T02:11:00.648Z,23.73
2019-06-26T02:12:00.717Z,23.67
2019-06-26T02:13:00.619Z,23.76
2019-06-26T02:14:00.603Z,23.67
2019-06-26T02:15:00.589Z,23.67
2019-06-26T02:16:00.575Z,23.71
2019-06-26T02:17:00.564Z,23.73
2019-06-26T02:18:00.549Z,23.67
2019-06-26T02:19:00.540Z,23.61
2019-06-26T02:20:00.521Z,23.67
2019-06-26T02:21:00.507Z,23.70
2019-06-26T02:22:00.489Z,23.67
2019-06-26T02:23:00.487Z,23.66
2019-06-26T02:24:00.477Z,23.55
2019-06-26T02:25:00.475Z,23.55
2019-06-26T02:26:00.440Z,23.55
2019-06-26T02:27:00.427Z,23.54
2019-06-26T02:28:00.416Z,23.60
2019-06-26T02:29:00.405Z,23.56
2019-06-26T02:30:00.387Z,23.56
2019-06-26T02:31:00.372Z,23.56
2019-06-26T02:32:00.364Z,23.55
2019-06-26T02:33:00.348Z,23.56
2019-06-26T02:34:00.335Z,23.44
2019-06-26T02:35:00.332Z,23.48
2019-06-26T02:36:00.319Z,23.45
2019-06-26T02:37:00.296Z,23.51
2019-06-26T02:38:00.295Z,23.48
2019-06-26T02:39:00.282Z,23.45
2019-06-26T02:40:00.265Z,23.42
2019-06-26T02:41:00.250Z,23.42
2019-06-26T02:42:00.261Z,23.46
2019-06-26T02:43:00.200Z,23.41
2019-06-26T02:44:00.195Z,23.39
2019-06-26T02:45:00.221Z,23.42
2019-06-26T02:46:00.177Z,23.42
2019-06-26T02:47:17.508Z,23.41
2019-06-26T02:48:00.273Z,23.36
2019-06-26T02:49:00.132Z,23.31
2019-06-26T02:50:00.135Z,23.29
2019-06-26T02:51:00.113Z,23.34
2019-06-26T02:52:00.091Z,23.33
2019-06-26T02:53:00.077Z,23.33
2019-06-26T02:54:00.057Z,23.45
2019-06-26T02:55:00.047Z,23.29
2019-06-26T02:56:00.030Z,23.34
2019-06-26T02:57:00.024Z,23.36
2019-06-26T02:58:00.002Z,23.39
2019-06-26T02:58:59.988Z,23.33
2019-06-26T02:59:59.983Z,23.33
2019-06-26T03:00:59.968Z,23.33
2019-06-26T03:01:59.947Z,23.34
2019-06-26T03:02:59.936Z,23.34
2019-06-26T03:03:59.931Z,23.33
2019-06-26T03:04:59.904Z,23.33
2019-06-26T03:05:59.894Z,23.26
2019-06-26T03:06:59.883Z,23.22
2019-06-26T03:07:59.866Z,23.36
2019-06-26T03:08:59.854Z,23.25
2019-06-26T03:09:59.832Z,23.23
2019-06-26T03:10:59.833Z,23.18
2019-06-26T03:11:59.808Z,23.22
2019-06-26T03:12:59.804Z,23.15
2019-06-26T03:13:59.772Z,23.15
2019-06-26T03:15:08.698Z,23.21
2019-06-26T03:15:59.757Z,23.18
2019-06-26T03:16:59.737Z,23.17
2019-06-26T03:17:59.730Z,23.17
2019-06-26T03:18:59.706Z,23.17
2019-06-26T03:19:59.708Z,23.14
2019-06-26T03:20:59.687Z,23.17
2019-06-26T03:21:59.668Z,23.06
2019-06-26T03:22:59.665Z,23.13
2019-06-26T03:23:59.636Z,23.14
2019-06-26T03:24:59.629Z,23.17
2019-06-26T03:25:59.620Z,23.13
2019-06-26T03:26:59.602Z,23.06
2019-06-26T03:27:59.579Z,23.15
2019-06-26T03:28:59.575Z,23.13
2019-06-26T03:29:59.557Z,23.13
2019-06-26T03:30:59.538Z,23.07
2019-06-26T03:31:59.526Z,23.15
2019-06-26T03:32:59.519Z,23.08
2019-06-26T03:33:59.503Z,23.10
2019-06-26T03:34:59.485Z,23.11
2019-06-26T03:35:59.480Z,23.07
2019-06-26T03:36:59.460Z,23.10
2019-06-26T03:37:59.439Z,23.06
2019-06-26T03:38:59.432Z,23.06
2019-06-26T03:39:59.415Z,23.14
2019-06-26T03:40:59.402Z,23.07
2019-06-26T03:41:59.390Z,23.14
2019-06-26T03:42:59.376Z,23.13
2019-06-26T03:43:59.363Z,23.14
2019-06-26T03:44:59.345Z,23.11
2019-06-26T03:45:59.329Z,23.03
2019-06-26T03:46:59.327Z,23.13
2019-06-26T03:47:59.302Z,23.07
2019-06-26T03:48:59.292Z,23.07
2019-06-26T03:49:59.283Z,23.03
2019-06-26T03:50:59.265Z,23.06
2019-06-26T03:51:59.249Z,23.03
2019-06-26T03:52:59.227Z,23.01
2019-06-26T03:53:59.221Z,23.07
2019-06-26T03:54:59.204Z,23.01
2019-06-26T03:55:59.192Z,22.98
2019-06-26T03:56:59.176Z,22.99
2019-06-26T03:57:59.173Z,23.03
2019-06-26T03:58:59.148Z,23.01
2019-06-26T03:59:59.140Z,23.08
2019-06-26T04:00:59.117Z,23.03
2019-06-26T04:01:59.104Z,23.15
2019-06-26T04:02:59.210Z,23.06
2019-06-26T04:03:59.071Z,23.10
2019-06-26T04:04:59.065Z,23.10
2019-06-26T04:05:59.047Z,23.14
2019-06-26T04:06:59.051Z,23.10
2019-06-26T04:07:59.022Z,23.15
2019-06-26T04:08:59.011Z,23.15
2019-06-26T04:09:58.996Z,23.15
2019-06-26T04:10:58.979Z,23.14
2019-06-26T04:11:58.974Z,23.14
2019-06-26T04:12:58.951Z,23.26
2019-06-26T04:13:58.936Z,23.23
2019-06-26T04:14:58.924Z,23.13
2019-06-26T04:15:58.906Z,23.17
2019-06-26T04:16:58.895Z,23.17
2019-06-26T04:17:58.879Z,23.13
2019-06-26T04:18:58.869Z,23.15
2019-06-26T04:19:58.859Z,23.15
2019-06-26T04:20:58.839Z,23.17
2019-06-26T04:21:58.835Z,23.15
2019-06-26T04:22:58.825Z,23.13
2019-06-26T04:23:58.801Z,23.17
2019-06-26T04:24:58.791Z,23.17
2019-06-26T04:25:58.768Z,23.17
2019-06-26T04:26:58.757Z,23.21
2019-06-26T04:27:58.760Z,23.17
2019-06-26T04:28:58.741Z,23.18
2019-06-26T04:29:58.745Z,23.21
2019-06-26T04:30:58.707Z,23.22
2019-06-26T04:31:58.679Z,23.14
2019-06-26T04:32:58.772Z,23.15
2019-06-26T04:33:58.658Z,23.18
2019-06-26T04:34:58.651Z,23.13
2019-06-26T04:35:58.630Z,23.10
2019-06-26T04:36:58.613Z,23.15
2019-06-26T04:37:58.610Z,23.17
2019-06-26T04:38:58.598Z,23.15
2019-06-26T04:39:58.581Z,23.28
2019-06-26T04:40:58.563Z,23.29
2019-06-26T04:41:58.545Z,23.25
2019-06-26T04:42:58.541Z,23.29
2019-06-26T04:43:58.526Z,23.34
2019-06-26T04:44:58.511Z,23.28
2019-06-26T04:45:58.890Z,23.39
2019-06-26T04:46:58.478Z,23.33
2019-06-26T04:47:58.461Z,23.42
2019-06-26T04:48:58.451Z,23.42
2019-06-26T04:49:58.442Z,23.34
2019-06-26T04:50:58.423Z,23.42
2019-06-26T04:51:58.403Z,23.37
2019-06-26T04:52:58.389Z,23.48
2019-06-26T04:53:58.380Z,23.37
2019-06-26T04:54:58.364Z,23.31
2019-06-26T04:55:58.390Z,23.39
2019-06-26T04:56:58.343Z,23.41
2019-06-26T04:57:58.322Z,23.41
2019-06-26T04:58:58.360Z,23.44
2019-06-26T04:59:58.302Z,23.46
2019-06-26T05:00:58.288Z,23.51
2019-06-26T05:01:58.273Z,23.48
2019-06-26T05:02:58.259Z,23.52
2019-06-26T05:03:58.249Z,23.51
2019-06-26T05:04:58.232Z,23.49
2019-06-26T05:05:58.224Z,23.61
2019-06-26T05:06:58.205Z,23.59
2019-06-26T05:07:58.192Z,23.61
2019-06-26T05:08:58.179Z,23.61
2019-06-26T05:09:58.162Z,23.59
2019-06-26T05:10:58.150Z,23.56
2019-06-26T05:11:58.175Z,23.60
2019-06-26T05:12:58.122Z,23.67
2019-06-26T05:13:58.108Z,23.63
2019-06-26T05:14:58.096Z,23.64
2019-06-26T05:16:10.573Z,23.67
2019-06-26T05:16:58.067Z,23.67
2019-06-26T05:17:58.063Z,23.67
2019-06-26T05:18:58.049Z,23.71
2019-06-26T05:19:58.026Z,23.70
2019-06-26T05:20:58.019Z,23.71
2019-06-26T05:21:58.038Z,23.84
2019-06-26T05:22:57.988Z,23.82
2019-06-26T05:23:57.971Z,23.86
2019-06-26T05:24:57.958Z,23.94
2019-06-26T05:25:57.954Z,23.85
2019-06-26T05:26:57.941Z,23.97
2019-06-26T05:27:57.921Z,24.07
2019-06-26T05:28:57.900Z,23.98
2019-06-26T05:29:57.898Z,24.03
2019-06-26T05:30:57.885Z,24.03
2019-06-26T05:31:57.872Z,24.08
2019-06-26T05:32:57.863Z,24.06
2019-06-26T05:33:57.847Z,24.10
2019-06-26T05:34:57.823Z,24.06
2019-06-26T05:35:57.834Z,24.04
2019-06-26T05:36:57.804Z,23.96
2019-06-26T05:37:57.786Z,24.04
2019-06-26T05:38:57.780Z,24.07
2019-06-26T05:39:57.764Z,24.07
2019-06-26T05:40:57.757Z,23.96
2019-06-26T05:41:57.729Z,24.10
2019-06-26T05:42:57.734Z,23.98
2019-06-26T05:43:57.712Z,24.01
2019-06-26T05:44:57.701Z,24.08
2019-06-26T05:45:57.694Z,24.01
2019-06-26T05:46:57.680Z,24.07
2019-06-26T05:47:57.655Z,24.07
2019-06-26T05:48:57.641Z,24.08
2019-06-26T05:49:57.627Z,24.21
2019-06-26T05:50:57.624Z,24.13
2019-06-26T05:51:57.605Z,24.25
2019-06-26T05:52:57.590Z,24.13
2019-06-26T05:53:57.580Z,24.19
2019-06-26T05:54:57.582Z,24.16
2019-06-26T05:55:57.553Z,24.22
2019-06-26T05:56:57.546Z,24.16
2019-06-26T05:57:57.523Z,24.25
2019-06-26T05:58:57.521Z,24.34
2019-06-26T05:59:57.534Z,24.38
2019-06-26T06:00:57.509Z,24.36
2019-06-26T06:01:57.483Z,24.45
2019-06-26T06:02:57.496Z,24.44
2019-06-26T06:03:57.465Z,24.52
2019-06-26T06:04:57.453Z,24.48
2019-06-26T06:05:57.437Z,24.53
2019-06-26T06:06:57.425Z,24.55
2019-06-26T06:07:57.419Z,24.58
2019-06-26T06:08:57.413Z,24.58
2019-06-26T06:09:57.397Z,24.59
2019-06-26T06:10:58.379Z,24.66
2019-06-26T06:11:57.369Z,24.66
2019-06-26T06:12:57.369Z,24.79
2019-06-26T06:13:57.354Z,24.70
2019-06-26T06:14:57.342Z,24.76
2019-06-26T06:15:57.333Z,24.76
2019-06-26T06:16:57.328Z,24.81
2019-06-26T06:17:57.312Z,24.82
2019-06-26T06:18:57.295Z,24.86
2019-06-26T06:19:57.293Z,24.79
2019-06-26T06:20:57.283Z,24.82
2019-06-26T06:21:57.273Z,24.78
2019-06-26T06:22:57.264Z,24.86
2019-06-26T06:23:57.259Z,24.96
2019-06-26T06:24:57.247Z,25.06
2019-06-26T06:25:57.237Z,25.06
2019-06-26T06:26:57.229Z,24.97
2019-06-26T06:27:57.217Z,25.11
2019-06-26T06:28:57.213Z,25.03
2019-06-26T06:29:57.205Z,25.03
2019-06-26T06:30:57.194Z,25.18
2019-06-26T06:31:57.189Z,25.15
2019-06-26T06:32:57.178Z,25.15
2019-06-26T06:33:57.167Z,25.15
2019-06-26T06:34:57.160Z,25.21
2019-06-26T06:35:57.158Z,25.37
2019-06-26T06:36:57.146Z,25.28
2019-06-26T06:37:57.135Z,25.27
2019-06-26T06:38:57.127Z,25.30
2019-06-26T06:39:57.122Z,25.38
2019-06-26T06:40:57.120Z,25.34
2019-06-26T06:41:57.101Z,25.43
2019-06-26T06:42:57.097Z,25.52
2019-06-26T06:43:57.090Z,25.46
2019-06-26T06:44:57.084Z,25.51
2019-06-26T06:45:57.076Z,25.53
2019-06-26T06:47:03.801Z,25.53
2019-06-26T06:47:57.064Z,25.58
2019-06-26T06:48:57.047Z,25.70
2019-06-26T06:49:57.067Z,25.70
2019-06-26T06:50:57.068Z,25.67
2019-06-26T06:51:57.028Z,25.67
2019-06-26T06:52:57.028Z,25.67
2019-06-26T06:53:57.023Z,25.83
2019-06-26T06:54:57.013Z,25.82
2019-06-26T06:55:57.006Z,25.78
2019-06-26T06:56:57.000Z,25.88
2019-06-26T06:57:56.995Z,25.92
2019-06-26T06:58:56.986Z,25.89
2019-06-26T06:59:56.983Z,25.88
2019-06-26T07:00:56.975Z,25.85
2019-06-26T07:01:56.970Z,25.77
2019-06-26T07:02:57.018Z,25.77
2019-06-26T07:03:56.966Z,25.81
2019-06-26T07:04:56.953Z,25.78
2019-06-26T07:05:56.945Z,25.89
2019-06-26T07:06:58.820Z,25.89
2019-06-26T07:07:56.944Z,25.86
2019-06-26T07:08:56.932Z,25.88
2019-06-26T07:10:05.592Z,25.88
2019-06-26T07:12:00.908Z,25.86
2019-06-26T07:13:00.882Z,25.92
2019-06-26T07:15:05.330Z,25.92
2019-06-26T07:16:05.319Z,26.03
2019-06-26T07:17:19.311Z,26.01
2019-06-26T07:18:05.309Z,26.01
2019-06-26T07:19:05.308Z,26.07
2019-06-26T07:20:05.301Z,26.08
2019-06-26T07:21:05.291Z,26.07
2019-06-26T07:22:07.335Z,26.10
2019-06-26T07:23:05.287Z,26.19
2019-06-26T07:24:05.283Z,26.10
2019-06-26T07:25:05.278Z,26.11
2019-06-26T07:26:05.270Z,26.19
2019-06-26T07:27:05.262Z,26.15
2019-06-26T07:28:05.273Z,26.11
2019-06-26T07:29:05.335Z,26.08
2019-06-26T07:30:05.244Z,26.10
2019-06-26T07:31:05.238Z,26.08
2019-06-26T07:32:05.236Z,26.03
2019-06-26T07:33:05.228Z,26.08
2019-06-26T07:34:05.220Z,26.05
2019-06-26T07:35:05.216Z,26.19
2019-06-26T07:36:05.235Z,26.15
2019-06-26T07:37:05.199Z,26.23
2019-06-26T07:38:05.194Z,26.30
2019-06-26T07:39:05.189Z,26.19
2019-06-26T07:40:05.180Z,26.27
2019-06-26T07:41:05.173Z,26.11
2019-06-26T07:42:05.165Z,26.21
2019-06-26T07:43:05.210Z,26.10
2019-06-26T07:44:05.150Z,26.10
2019-06-26T07:45:05.228Z,26.19
2019-06-26T07:46:05.142Z,26.16
2019-06-26T07:47:18.399Z,26.23
2019-06-26T07:48:05.120Z,26.27
2019-06-26T07:49:05.110Z,26.20
2019-06-26T07:50:05.104Z,26.31
2019-06-26T07:51:05.098Z,26.27
2019-06-26T07:52:05.086Z,26.36
2019-06-26T07:53:05.076Z,26.27
2019-06-26T07:54:05.126Z,26.27
2019-06-26T07:55:05.060Z,26.38
2019-06-26T07:56:05.055Z,26.36
2019-06-26T07:57:05.042Z,26.39
2019-06-26T07:58:05.033Z,26.36
2019-06-26T07:59:05.028Z,26.49
2019-06-26T08:00:05.201Z,26.51
2019-06-26T08:01:05.070Z,26.64
2019-06-26T08:02:05.006Z,26.71
2019-06-26T08:03:04.992Z,26.78
2019-06-26T08:04:05.001Z,26.83
2019-06-26T08:05:04.970Z,26.85
2019-06-26T08:06:04.961Z,26.94
2019-06-26T08:07:04.952Z,27.08
2019-06-26T08:08:04.945Z,27.05
2019-06-26T08:09:04.936Z,26.97
2019-06-26T08:10:04.926Z,26.95
2019-06-26T08:11:06.545Z,26.95
2019-06-26T08:12:04.908Z,26.98
2019-06-26T08:13:04.898Z,27.04
2019-06-26T08:14:04.894Z,27.07
2019-06-26T08:15:04.880Z,27.04
2019-06-26T08:16:04.873Z,27.16
2019-06-26T08:17:04.872Z,27.30
2019-06-26T08:18:04.868Z,27.30
2019-06-26T08:19:04.844Z,27.34
2019-06-26T08:20:04.834Z,27.41
2019-06-26T08:21:12.069Z,27.44
2019-06-26T08:22:04.815Z,27.49
2019-06-26T08:23:04.808Z,27.52
2019-06-26T08:24:04.799Z,27.50
2019-06-26T08:25:04.788Z,27.42
2019-06-26T08:26:04.789Z,27.40
2019-06-26T08:27:04.772Z,27.49
2019-06-26T08:28:04.764Z,27.44
2019-06-26T08:29:04.768Z,27.52
2019-06-26T08:30:04.747Z,27.58
2019-06-26T08:31:04.732Z,27.58
2019-06-26T08:32:04.724Z,27.58
2019-06-26T08:33:04.716Z,27.66
2019-06-26T08:34:04.732Z,27.58
2019-06-26T08:35:04.697Z,27.70
2019-06-26T08:36:04.688Z,27.75
2019-06-26T08:37:04.677Z,27.60
2019-06-26T08:38:12.612Z,27.73
2019-06-26T08:39:04.661Z,27.87
2019-06-26T08:40:04.652Z,27.90
2019-06-26T08:41:04.641Z,27.95
2019-06-26T08:42:04.631Z,27.98
2019-06-26T08:43:04.624Z,27.95
2019-06-26T08:44:04.618Z,28.00
2019-06-26T08:45:04.671Z,27.94
2019-06-26T08:46:04.596Z,28.01
2019-06-26T08:47:04.590Z,27.90
2019-06-26T08:48:18.947Z,27.75
2019-06-26T08:49:04.594Z,27.76
2019-06-26T08:50:04.880Z,27.72
2019-06-26T08:51:04.562Z,27.82
2019-06-26T08:52:04.565Z,27.88
2019-06-26T08:53:04.531Z,27.82
2019-06-26T08:54:04.903Z,27.83
2019-06-26T08:55:04.515Z,27.88
2019-06-26T08:56:05.163Z,27.95
2019-06-26T08:57:04.523Z,28.06
2019-06-26T08:58:04.492Z,28.03
2019-06-26T08:59:04.657Z,27.94
2019-06-26T09:00:04.480Z,28.01
2019-06-26T09:01:04.468Z,27.94
2019-06-26T09:02:04.453Z,28.12
2019-06-26T09:03:04.464Z,28.00
2019-06-26T09:04:04.432Z,28.07
2019-06-26T09:05:04.589Z,28.24
2019-06-26T09:06:04.413Z,28.20
2019-06-26T09:07:04.424Z,28.28
2019-06-26T09:08:04.459Z,28.35
2019-06-26T09:09:04.387Z,28.46
2019-06-26T09:10:04.377Z,28.56
2019-06-26T09:11:04.370Z,28.65
2019-06-26T09:12:04.360Z,28.61
2019-06-26T09:13:04.382Z,28.50
2019-06-26T09:14:04.342Z,28.56
2019-06-26T09:15:04.331Z,28.49
2019-06-26T09:16:04.323Z,28.56
2019-06-26T09:17:04.312Z,28.50
2019-06-26T09:18:04.304Z,28.53
2019-06-26T09:19:04.296Z,28.59
2019-06-26T09:20:04.286Z,28.57
2019-06-26T09:21:04.280Z,28.64
2019-06-26T09:22:04.269Z,28.62
2019-06-26T09:23:04.280Z,28.66
2019-06-26T09:24:04.268Z,28.65
2019-06-26T09:25:20.217Z,28.62
2019-06-26T09:26:04.233Z,28.65
2019-06-26T09:27:04.230Z,28.65
2019-06-26T09:28:04.219Z,28.64
2019-06-26T09:29:04.230Z,28.64
2019-06-26T09:30:04.198Z,28.69
2019-06-26T09:31:04.199Z,28.74
2019-06-26T09:32:04.183Z,28.62
2019-06-26T09:33:04.175Z,28.64
2019-06-26T09:34:04.163Z,28.71
2019-06-26T09:35:04.163Z,28.72
2019-06-26T09:36:06.825Z,28.77
2019-06-26T09:37:04.137Z,28.80
2019-06-26T09:38:04.128Z,28.84
2019-06-26T09:39:04.143Z,28.89
2019-06-26T09:40:04.178Z,28.93
2019-06-26T09:41:04.104Z,28.96
2019-06-26T09:42:04.095Z,29.00
2019-06-26T09:43:04.281Z,28.98
2019-06-26T09:44:04.081Z,28.93
2019-06-26T09:45:04.062Z,28.93
2019-06-26T09:46:04.059Z,28.90
2019-06-26T09:47:04.055Z,28.94
2019-06-26T09:48:04.037Z,29.06
2019-06-26T09:49:04.027Z,29.12
2019-06-26T09:50:04.039Z,29.09
2019-06-26T09:51:04.048Z,29.04
2019-06-26T09:52:04.002Z,28.91
2019-06-26T09:53:05.402Z,28.96
2019-06-26T09:54:03.986Z,29.15
2019-06-26T09:55:03.976Z,29.22
2019-06-26T09:56:03.968Z,29.19
2019-06-26T09:57:03.965Z,29.25
2019-06-26T09:58:03.949Z,29.21
2019-06-26T09:59:03.941Z,29.18
2019-06-26T10:00:03.931Z,29.21
2019-06-26T10:01:04.309Z,29.19
2019-06-26T10:02:03.916Z,29.18
2019-06-26T10:03:03.915Z,29.29
2019-06-26T10:04:03.896Z,29.28
2019-06-26T10:05:03.888Z,29.33
2019-06-26T10:06:03.877Z,29.44
2019-06-26T10:07:03.873Z,29.41
2019-06-26T10:08:03.865Z,29.49
2019-06-26T10:09:03.856Z,29.44
2019-06-26T10:10:03.857Z,29.36
2019-06-26T10:11:03.839Z,29.37
2019-06-26T10:12:03.828Z,29.33
2019-06-26T10:13:03.817Z,29.36
2019-06-26T10:14:03.813Z,29.36
2019-06-26T10:15:03.804Z,29.36
2019-06-26T10:16:03.797Z,29.37
2019-06-26T10:17:03.785Z,29.52
2019-06-26T10:18:03.776Z,29.47
2019-06-26T10:19:09.937Z,29.50
2019-06-26T10:20:03.863Z,29.61
2019-06-26T10:21:03.744Z,29.65
2019-06-26T10:22:03.741Z,29.70
2019-06-26T10:23:03.741Z,29.66
2019-06-26T10:24:03.736Z,29.65
2019-06-26T10:25:03.785Z,29.54
2019-06-26T10:26:03.708Z,29.55
2019-06-26T10:27:03.700Z,29.58
2019-06-26T10:28:03.689Z,29.52
2019-06-26T10:29:03.698Z,29.61
2019-06-26T10:30:03.685Z,29.71
2019-06-26T10:31:03.663Z,29.66
2019-06-26T10:32:03.654Z,29.71
2019-06-26T10:33:03.659Z,29.77
2019-06-26T10:34:03.635Z,29.76
2019-06-26T10:35:03.631Z,29.73
2019-06-26T10:36:03.618Z,29.80
2019-06-26T10:37:03.763Z,29.78
2019-06-26T10:38:03.662Z,29.78
2019-06-26T10:39:03.638Z,29.80
2019-06-26T10:40:03.600Z,29.81
2019-06-26T10:41:03.579Z,29.83
2019-06-26T10:42:03.580Z,29.98
2019-06-26T10:43:03.650Z,29.92
2019-06-26T10:44:03.701Z,29.81
2019-06-26T10:45:03.537Z,29.81
2019-06-26T10:46:03.566Z,29.92
2019-06-26T10:47:03.533Z,29.96
2019-06-26T10:48:03.517Z,29.98
2019-06-26T10:49:03.501Z,29.95
2019-06-26T10:50:03.495Z,29.98
2019-06-26T10:51:03.493Z,30.00
2019-06-26T10:52:03.524Z,30.03
2019-06-26T10:53:03.483Z,30.13
2019-06-26T10:54:03.474Z,30.03
2019-06-26T10:55:03.539Z,30.07
2019-06-26T10:56:03.500Z,29.96
2019-06-26T10:57:03.649Z,29.99
2019-06-26T10:58:12.095Z,30.03
2019-06-26T11:00:07.880Z,29.84
2019-06-26T11:01:07.867Z,29.66
2019-06-26T11:02:07.857Z,29.65
2019-06-26T11:03:07.844Z,29.52
2019-06-26T11:04:07.857Z,29.52
2019-06-26T11:05:08.272Z,29.55
2019-06-26T11:06:08.060Z,29.59
2019-06-26T11:07:17.454Z,29.62
2019-06-26T11:09:12.261Z,29.68
2019-06-26T11:10:12.240Z,29.68
2019-06-26T11:11:12.230Z,29.68
2019-06-26T11:12:12.236Z,29.76
2019-06-26T11:13:12.212Z,29.83
2019-06-26T11:14:12.206Z,29.91
2019-06-26T11:15:12.205Z,30.05
2019-06-26T11:16:12.191Z,30.03
2019-06-26T11:17:12.180Z,30.10
2019-06-26T11:18:12.167Z,30.24
2019-06-26T11:19:12.165Z,30.22
2019-06-26T11:20:12.154Z,30.29
2019-06-26T11:21:12.150Z,30.39
2019-06-26T11:22:12.138Z,30.40
2019-06-26T11:23:12.130Z,30.33
2019-06-26T11:24:12.122Z,30.22
2019-06-26T11:25:12.138Z,30.20
2019-06-26T11:26:12.109Z,30.10
2019-06-26T11:27:12.439Z,29.96
2019-06-26T11:28:12.088Z,30.00
2019-06-26T11:29:12.085Z,29.98
2019-06-26T11:30:12.071Z,29.98
2019-06-26T11:31:12.062Z,30.00
2019-06-26T11:32:12.054Z,29.92
2019-06-26T11:33:12.047Z,29.98
2019-06-26T11:34:12.044Z,30.08
2019-06-26T11:35:12.029Z,30.10
2019-06-26T11:36:12.020Z,30.13
2019-06-26T11:37:12.017Z,30.03
2019-06-26T11:38:12.015Z,29.89
2019-06-26T11:39:11.995Z,29.93
2019-06-26T11:40:11.991Z,30.07
2019-06-26T11:41:11.983Z,30.21
2019-06-26T11:42:11.971Z,30.37
2019-06-26T11:43:11.980Z,30.52
2019-06-26T11:44:11.954Z,30.48
2019-06-26T11:45:11.949Z,30.51
2019-06-26T11:46:11.957Z,30.60
2019-06-26T11:47:11.937Z,30.59
2019-06-26T11:48:12.013Z,30.46
2019-06-26T11:49:11.923Z,30.62
2019-06-26T11:50:11.967Z,30.56
2019-06-26T11:51:11.937Z,30.48
2019-06-26T11:52:11.908Z,30.60
2019-06-26T11:53:20.526Z,30.49
2019-06-26T11:55:16.341Z,30.56
2019-06-26T11:56:16.318Z,30.33
2019-06-26T11:57:16.311Z,30.36
2019-06-26T11:58:16.301Z,30.39
2019-06-26T11:59:16.294Z,30.37
2019-06-26T12:00:16.288Z,30.56
2019-06-26T12:01:16.276Z,30.40
2019-06-26T12:02:16.267Z,30.51
2019-06-26T12:03:16.261Z,30.52
2019-06-26T12:04:16.253Z,30.64
2019-06-26T12:05:16.255Z,30.74
2019-06-26T12:06:19.167Z,30.92
2019-06-26T12:07:16.224Z,30.89
2019-06-26T12:08:18.419Z,30.83
2019-06-26T12:09:16.210Z,30.74
2019-06-26T12:10:16.202Z,30.75
2019-06-26T12:11:16.227Z,30.88
2019-06-26T12:12:16.301Z,30.89
2019-06-26T12:13:16.180Z,30.89
2019-06-26T12:14:16.168Z,30.96
2019-06-26T12:15:16.165Z,30.95
2019-06-26T12:16:16.158Z,30.99
2019-06-26T12:17:16.150Z,31.02
2019-06-26T12:18:16.142Z,30.90
2019-06-26T12:19:19.103Z,30.89
2019-06-26T12:20:19.107Z,30.92
2019-06-26T12:21:16.112Z,30.97
2019-06-26T12:22:16.104Z,31.02
2019-06-26T12:23:16.097Z,31.10
2019-06-26T12:24:16.090Z,31.22
2019-06-26T12:25:16.081Z,31.27
2019-06-26T12:26:16.131Z,31.20
2019-06-26T12:27:16.067Z,31.30
2019-06-26T12:28:16.056Z,31.41
2019-06-26T12:29:16.098Z,31.45
2019-06-26T12:30:16.041Z,31.44
2019-06-26T12:31:16.035Z,31.42
2019-06-26T12:32:16.029Z,31.46
2019-06-26T12:33:16.016Z,31.33
2019-06-26T12:34:16.013Z,31.33
2019-06-26T12:35:16.016Z,31.39
2019-06-26T12:36:16.063Z,31.48
2019-06-26T12:37:16.045Z,31.54
2019-06-26T12:38:15.981Z,31.57
2019-06-26T12:39:15.976Z,31.70
2019-06-26T12:40:16.106Z,31.61
2019-06-26T12:41:16.383Z,31.56
2019-06-26T12:42:15.948Z,31.41
2019-06-26T12:43:15.939Z,31.41
2019-06-26T12:44:15.937Z,31.39
2019-06-26T12:45:15.924Z,31.27
2019-06-26T12:46:18.261Z,31.26
2019-06-26T12:47:15.913Z,31.51
2019-06-26T12:48:16.469Z,31.67
2019-06-26T12:49:15.894Z,31.64
2019-06-26T12:50:15.889Z,31.79
2019-06-26T12:51:15.882Z,31.98
2019-06-26T12:52:17.111Z,32.27
2019-06-26T12:53:15.962Z,32.63
2019-06-26T12:54:15.867Z,32.65
2019-06-26T12:55:15.859Z,32.83
2019-06-26T12:56:15.850Z,32.97
2019-06-26T12:57:15.850Z,32.90